sensor_id;sensor_type;location;lat;lon;timestamp;pressure;altitude;pressure_sealevel;temperature;humidity
35806;BME280;21925;44.608;11.580;2023-02-28T00:00:23;102181.06;;;6.83;100.00
35806;BME280;21925;44.608;11.580;2023-02-28T00:02:49;102182.94;;;6.88;100.00
35806;BME280;21925;44.608;11.580;2023-02-28T00:05:17;102163.00;;;6.64;100.00
35806;BME280;21925;44.608;11.580;2023-02-28T00:07:43;102180.16;;;6.93;100.00
35806;BME280;21925;44.608;11.580;2023-02-28T00:10:11;102181.25;;;7.20;100.00
35806;BME280;21925;44.608;11.580;2023-02-28T00:12:38;102191.41;;;6.86;100.00
35806;BME280;21925;44.608;11.580;2023-02-28T00:15:09;102190.25;;;6.64;100.00
35806;BME280;21925;44.608;11.580;2023-02-28T00:17:36;102183.22;;;6.86;100.00
35806;BME280;21925;44.608;11.580;2023-02-28T00:20:02;102183.63;;;6.75;100.00
35806;BME280;21925;44.608;11.580;2023-02-28T00:22:42;102187.03;;;6.57;100.00
35806;BME280;21925;44.608;11.580;2023-02-28T00:25:09;102174.22;;;6.29;100.00
35806;BME280;21925;44.608;11.580;2023-02-28T00:27:36;102187.78;;;6.34;100.00
35806;BME280;21925;44.608;11.580;2023-02-28T00:30:04;102188.50;;;6.11;100.00
35806;BME280;21925;44.608;11.580;2023-02-28T00:32:30;102172.47;;;6.10;100.00
35806;BME280;21925;44.608;11.580;2023-02-28T00:34:56;102187.13;;;6.14;100.00
35806;BME280;21925;44.608;11.580;2023-02-28T00:37:22;102186.31;;;6.13;100.00
35806;BME280;21925;44.608;11.580;2023-02-28T00:39:48;102178.63;;;6.20;100.00
35806;BME280;21925;44.608;11.580;2023-02-28T00:42:14;102111.97;;;5.69;100.00
35806;BME280;21925;44.608;11.580;2023-02-28T00:44:40;102198.81;;;6.14;100.00
35806;BME280;21925;44.608;11.580;2023-02-28T00:47:06;102204.59;;;6.03;100.00
35806;BME280;21925;44.608;11.580;2023-02-28T00:49:32;102209.00;;;5.94;100.00
35806;BME280;21925;44.608;11.580;2023-02-28T00:51:57;102202.72;;;5.98;100.00
35806;BME280;21925;44.608;11.580;2023-02-28T00:54:25;102212.19;;;6.11;100.00
35806;BME280;21925;44.608;11.580;2023-02-28T00:56:51;102211.75;;;6.32;100.00
35806;BME280;21925;44.608;11.580;2023-02-28T00:59:17;102209.03;;;6.37;100.00
35806;BME280;21925;44.608;11.580;2023-02-28T01:01:45;102211.03;;;6.22;100.00
35806;BME280;21925;44.608;11.580;2023-02-28T01:04:10;102218.41;;;6.16;100.00
35806;BME280;21925;44.608;11.580;2023-02-28T01:06:36;102216.97;;;6.29;100.00
35806;BME280;21925;44.608;11.580;2023-02-28T01:09:03;102218.28;;;5.93;100.00
35806;BME280;21925;44.608;11.580;2023-02-28T01:11:29;102222.31;;;6.05;100.00
35806;BME280;21925;44.608;11.580;2023-02-28T01:13:55;102214.72;;;5.97;100.00
35806;BME280;21925;44.608;11.580;2023-02-28T01:16:21;102211.03;;;6.22;100.00
35806;BME280;21925;44.608;11.580;2023-02-28T01:18:47;102217.66;;;6.06;100.00
35806;BME280;21925;44.608;11.580;2023-02-28T01:21:16;102200.69;;;6.19;100.00
35806;BME280;21925;44.608;11.580;2023-02-28T01:23:43;102200.31;;;6.35;100.00
35806;BME280;21925;44.608;11.580;2023-02-28T01:26:18;102205.22;;;6.33;100.00
35806;BME280;21925;44.608;11.580;2023-02-28T01:28:44;102219.00;;;6.46;100.00
35806;BME280;21925;44.608;11.580;2023-02-28T01:31:11;102225.13;;;6.33;100.00
35806;BME280;21925;44.608;11.580;2023-02-28T01:33:37;102221.84;;;6.32;100.00
35806;BME280;21925;44.608;11.580;2023-02-28T01:36:15;102199.88;;;6.18;100.00
35806;BME280;21925;44.608;11.580;2023-02-28T01:38:42;102216.78;;;6.15;100.00
35806;BME280;21925;44.608;11.580;2023-02-28T01:41:08;102211.34;;;6.15;100.00
35806;BME280;21925;44.608;11.580;2023-02-28T01:46:12;102225.84;;;6.44;100.00
35806;BME280;21925;44.608;11.580;2023-02-28T01:48:41;102201.44;;;6.29;100.00
35806;BME280;21925;44.608;11.580;2023-02-28T01:51:11;102218.78;;;6.43;100.00
35806;BME280;21925;44.608;11.580;2023-02-28T01:53:48;102212.25;;;6.39;100.00
35806;BME280;21925;44.608;11.580;2023-02-28T01:56:18;102219.38;;;6.35;100.00
35806;BME280;21925;44.608;11.580;2023-02-28T01:58:52;102204.19;;;6.24;100.00
35806;BME280;21925;44.608;11.580;2023-02-28T02:01:20;102210.72;;;6.28;100.00
35806;BME280;21925;44.608;11.580;2023-02-28T02:04:01;102208.09;;;6.13;100.00
35806;BME280;21925;44.608;11.580;2023-02-28T02:06:31;102196.13;;;6.09;100.00
35806;BME280;21925;44.608;11.580;2023-02-28T02:08:58;102203.09;;;6.25;100.00
35806;BME280;21925;44.608;11.580;2023-02-28T02:11:25;102202.00;;;6.26;100.00
35806;BME280;21925;44.608;11.580;2023-02-28T02:22:18;102204.06;;;6.44;100.00
35806;BME280;21925;44.608;11.580;2023-02-28T02:25:21;102188.59;;;6.34;100.00
35806;BME280;21925;44.608;11.580;2023-02-28T02:28:12;102195.97;;;6.34;100.00
35806;BME280;21925;44.608;11.580;2023-02-28T02:31:06;102185.38;;;6.61;100.00
35806;BME280;21925;44.608;11.580;2023-02-28T02:36:30;102184.50;;;6.37;100.00
35806;BME280;21925;44.608;11.580;2023-02-28T02:41:40;102188.81;;;6.71;100.00
35806;BME280;21925;44.608;11.580;2023-02-28T02:44:37;102188.91;;;6.90;100.00
35806;BME280;21925;44.608;11.580;2023-02-28T02:47:17;102182.84;;;6.98;100.00
35806;BME280;21925;44.608;11.580;2023-02-28T02:49:56;102184.56;;;6.89;100.00
35806;BME280;21925;44.608;11.580;2023-02-28T02:52:28;102178.06;;;6.85;100.00
35806;BME280;21925;44.608;11.580;2023-02-28T02:54:56;102175.84;;;6.87;100.00
35806;BME280;21925;44.608;11.580;2023-02-28T02:57:33;102195.66;;;6.97;100.00
35806;BME280;21925;44.608;11.580;2023-02-28T03:00:03;102191.94;;;7.11;100.00
35806;BME280;21925;44.608;11.580;2023-02-28T03:02:31;102197.94;;;7.13;100.00
35806;BME280;21925;44.608;11.580;2023-02-28T03:05:02;102191.53;;;7.23;100.00
35806;BME280;21925;44.608;11.580;2023-02-28T03:07:28;102187.94;;;7.27;100.00
35806;BME280;21925;44.608;11.580;2023-02-28T03:09:56;102201.03;;;7.30;100.00
35806;BME280;21925;44.608;11.580;2023-02-28T03:12:28;102199.69;;;7.28;100.00
35806;BME280;21925;44.608;11.580;2023-02-28T03:17:51;102188.53;;;7.01;100.00
35806;BME280;21925;44.608;11.580;2023-02-28T03:20:38;102201.50;;;7.14;100.00
35806;BME280;21925;44.608;11.580;2023-02-28T03:23:23;102205.03;;;7.14;100.00
35806;BME280;21925;44.608;11.580;2023-02-28T03:26:03;102193.78;;;7.21;100.00
35806;BME280;21925;44.608;11.580;2023-02-28T03:28:43;102205.97;;;7.52;100.00
35806;BME280;21925;44.608;11.580;2023-02-28T03:31:28;102210.31;;;7.29;100.00
35806;BME280;21925;44.608;11.580;2023-02-28T03:34:06;102207.69;;;7.66;100.00
35806;BME280;21925;44.608;11.580;2023-02-28T03:36:41;102225.34;;;7.50;100.00
35806;BME280;21925;44.608;11.580;2023-02-28T03:39:15;102214.38;;;7.32;100.00
35806;BME280;21925;44.608;11.580;2023-02-28T03:41:50;102219.91;;;7.50;100.00
35806;BME280;21925;44.608;11.580;2023-02-28T03:44:32;102229.88;;;7.60;100.00
35806;BME280;21925;44.608;11.580;2023-02-28T03:47:33;102226.16;;;7.74;100.00
35806;BME280;21925;44.608;11.580;2023-02-28T03:50:07;102235.00;;;7.66;100.00
35806;BME280;21925;44.608;11.580;2023-02-28T03:52:38;102222.28;;;7.33;100.00
35806;BME280;21925;44.608;11.580;2023-02-28T03:55:10;102228.13;;;7.22;100.00
35806;BME280;21925;44.608;11.580;2023-02-28T03:58:01;102215.63;;;7.16;100.00
35806;BME280;21925;44.608;11.580;2023-02-28T04:00:37;102220.00;;;7.40;100.00
35806;BME280;21925;44.608;11.580;2023-02-28T04:03:04;102224.97;;;7.10;100.00
35806;BME280;21925;44.608;11.580;2023-02-28T04:05:31;102216.88;;;7.28;100.00
35806;BME280;21925;44.608;11.580;2023-02-28T04:08:05;102232.09;;;7.34;100.00
35806;BME280;21925;44.608;11.580;2023-02-28T04:10:30;102235.47;;;7.26;100.00
35806;BME280;21925;44.608;11.580;2023-02-28T04:12:56;102228.72;;;7.19;100.00
35806;BME280;21925;44.608;11.580;2023-02-28T04:15:22;102234.63;;;7.03;100.00
35806;BME280;21925;44.608;11.580;2023-02-28T04:17:50;102238.44;;;7.25;100.00
35806;BME280;21925;44.608;11.580;2023-02-28T04:20:16;102237.41;;;7.44;100.00
35806;BME280;21925;44.608;11.580;2023-02-28T04:22:41;102224.88;;;7.20;100.00
35806;BME280;21925;44.608;11.580;2023-02-28T04:25:07;102237.34;;;7.26;100.00
35806;BME280;21925;44.608;11.580;2023-02-28T04:27:33;102234.63;;;7.03;100.00
35806;BME280;21925;44.608;11.580;2023-02-28T04:29:59;102199.25;;;6.93;100.00
35806;BME280;21925;44.608;11.580;2023-02-28T04:32:25;102227.22;;;6.75;100.00
35806;BME280;21925;44.608;11.580;2023-02-28T04:34:50;102213.91;;;6.73;100.00
35806;BME280;21925;44.608;11.580;2023-02-28T04:37:16;102209.69;;;6.57;100.00
35806;BME280;21925;44.608;11.580;2023-02-28T04:39:42;102234.47;;;6.56;100.00
35806;BME280;21925;44.608;11.580;2023-02-28T04:42:07;102229.22;;;6.64;100.00
35806;BME280;21925;44.608;11.580;2023-02-28T04:44:33;102225.78;;;6.54;100.00
35806;BME280;21925;44.608;11.580;2023-02-28T04:46:59;102226.06;;;6.86;100.00
35806;BME280;21925;44.608;11.580;2023-02-28T04:49:25;102211.88;;;7.12;100.00
35806;BME280;21925;44.608;11.580;2023-02-28T04:51:50;102222.66;;;7.45;100.00
35806;BME280;21925;44.608;11.580;2023-02-28T04:54:16;102233.72;;;7.59;100.00
35806;BME280;21925;44.608;11.580;2023-02-28T04:56:43;102230.44;;;7.57;100.00
35806;BME280;21925;44.608;11.580;2023-02-28T04:59:08;102237.88;;;7.51;100.00
35806;BME280;21925;44.608;11.580;2023-02-28T05:01:34;102237.66;;;7.24;100.00
35806;BME280;21925;44.608;11.580;2023-02-28T05:04:04;102242.69;;;7.59;100.00
35806;BME280;21925;44.608;11.580;2023-02-28T05:06:33;102241.47;;;7.70;100.00
35806;BME280;21925;44.608;11.580;2023-02-28T05:08:59;102241.69;;;7.74;100.00
35806;BME280;21925;44.608;11.580;2023-02-28T05:11:30;102242.53;;;7.51;100.00
35806;BME280;21925;44.608;11.580;2023-02-28T05:14:01;102249.59;;;7.28;100.00
35806;BME280;21925;44.608;11.580;2023-02-28T05:16:27;102248.81;;;7.28;100.00
35806;BME280;21925;44.608;11.580;2023-02-28T05:18:52;102237.19;;;7.17;100.00
35806;BME280;21925;44.608;11.580;2023-02-28T05:21:34;102240.91;;;7.26;100.00
35806;BME280;21925;44.608;11.580;2023-02-28T05:24:09;102248.94;;;7.41;100.00
35806;BME280;21925;44.608;11.580;2023-02-28T05:26:37;102254.13;;;7.61;100.00
35806;BME280;21925;44.608;11.580;2023-02-28T05:29:03;102251.72;;;7.83;100.00
35806;BME280;21925;44.608;11.580;2023-02-28T05:31:29;102256.69;;;7.76;100.00
35806;BME280;21925;44.608;11.580;2023-02-28T05:33:54;102245.56;;;7.49;100.00
35806;BME280;21925;44.608;11.580;2023-02-28T05:36:20;102235.00;;;7.43;100.00
35806;BME280;21925;44.608;11.580;2023-02-28T05:38:47;102257.16;;;7.36;100.00
35806;BME280;21925;44.608;11.580;2023-02-28T05:41:14;102257.03;;;7.46;100.00
35806;BME280;21925;44.608;11.580;2023-02-28T05:43:39;102244.38;;;7.32;100.00
35806;BME280;21925;44.608;11.580;2023-02-28T05:46:10;102265.53;;;7.45;100.00
35806;BME280;21925;44.608;11.580;2023-02-28T05:48:37;102263.06;;;7.20;100.00
35806;BME280;21925;44.608;11.580;2023-02-28T05:51:04;102253.50;;;7.22;100.00
35806;BME280;21925;44.608;11.580;2023-02-28T05:53:30;102262.00;;;7.68;100.00
35806;BME280;21925;44.608;11.580;2023-02-28T05:55:56;102249.38;;;7.48;100.00
35806;BME280;21925;44.608;11.580;2023-02-28T05:58:22;102244.41;;;7.04;100.00
35806;BME280;21925;44.608;11.580;2023-02-28T06:00:48;102259.94;;;7.31;100.00
35806;BME280;21925;44.608;11.580;2023-02-28T06:03:13;102263.31;;;7.23;100.00
35806;BME280;21925;44.608;11.580;2023-02-28T06:05:39;102271.72;;;7.27;100.00
35806;BME280;21925;44.608;11.580;2023-02-28T06:08:04;102274.28;;;7.18;100.00
35806;BME280;21925;44.608;11.580;2023-02-28T06:10:34;102266.63;;;7.44;100.00
35806;BME280;21925;44.608;11.580;2023-02-28T06:13:01;102287.06;;;7.46;100.00
35806;BME280;21925;44.608;11.580;2023-02-28T06:15:28;102280.50;;;7.47;100.00
35806;BME280;21925;44.608;11.580;2023-02-28T06:17:54;102276.22;;;7.41;100.00
35806;BME280;21925;44.608;11.580;2023-02-28T06:20:22;102282.59;;;7.55;100.00
35806;BME280;21925;44.608;11.580;2023-02-28T06:22:48;102275.81;;;7.53;100.00
35806;BME280;21925;44.608;11.580;2023-02-28T06:25:13;102293.16;;;7.38;100.00
35806;BME280;21925;44.608;11.580;2023-02-28T06:27:39;102296.16;;;7.65;100.00
35806;BME280;21925;44.608;11.580;2023-02-28T06:30:05;102284.94;;;7.67;100.00
35806;BME280;21925;44.608;11.580;2023-02-28T06:32:30;102305.66;;;7.91;100.00
35806;BME280;21925;44.608;11.580;2023-02-28T06:34:56;102304.81;;;7.72;100.00
35806;BME280;21925;44.608;11.580;2023-02-28T06:37:23;102302.94;;;7.91;100.00
35806;BME280;21925;44.608;11.580;2023-02-28T06:39:51;102301.75;;;7.97;100.00
35806;BME280;21925;44.608;11.580;2023-02-28T06:42:17;102305.25;;;8.02;100.00
35806;BME280;21925;44.608;11.580;2023-02-28T06:44:43;102311.53;;;8.26;100.00
35806;BME280;21925;44.608;11.580;2023-02-28T06:47:09;102319.06;;;8.11;97.95
35806;BME280;21925;44.608;11.580;2023-02-28T06:49:35;102330.47;;;8.18;97.04
35806;BME280;21925;44.608;11.580;2023-02-28T06:52:01;102316.16;;;8.26;95.90
35806;BME280;21925;44.608;11.580;2023-02-28T06:54:27;102314.63;;;8.38;95.48
35806;BME280;21925;44.608;11.580;2023-02-28T06:56:52;102308.97;;;8.11;94.39
35806;BME280;21925;44.608;11.580;2023-02-28T06:59:20;102307.69;;;8.04;94.06
35806;BME280;21925;44.608;11.580;2023-02-28T07:01:46;102306.19;;;8.16;92.74
35806;BME280;21925;44.608;11.580;2023-02-28T07:04:11;102323.69;;;8.34;91.99
35806;BME280;21925;44.608;11.580;2023-02-28T07:06:38;102321.63;;;8.26;91.06
35806;BME280;21925;44.608;11.580;2023-02-28T07:09:04;102322.81;;;8.38;90.33
35806;BME280;21925;44.608;11.580;2023-02-28T07:11:30;102291.50;;;8.31;89.68
35806;BME280;21925;44.608;11.580;2023-02-28T07:13:56;102309.25;;;8.33;89.43
35806;BME280;21925;44.608;11.580;2023-02-28T07:16:23;102309.38;;;8.42;89.20
35806;BME280;21925;44.608;11.580;2023-02-28T07:18:52;102311.75;;;8.67;90.87
35806;BME280;21925;44.608;11.580;2023-02-28T07:21:18;102308.47;;;8.65;89.34
35806;BME280;21925;44.608;11.580;2023-02-28T07:23:43;102303.97;;;8.73;90.00
35806;BME280;21925;44.608;11.580;2023-02-28T07:26:12;102310.53;;;8.72;88.20
35806;BME280;21925;44.608;11.580;2023-02-28T07:28:43;102319.50;;;8.78;87.28
35806;BME280;21925;44.608;11.580;2023-02-28T07:31:10;102319.97;;;8.98;87.75
35806;BME280;21925;44.608;11.580;2023-02-28T07:33:36;102316.75;;;8.96;86.59
35806;BME280;21925;44.608;11.580;2023-02-28T07:36:11;102319.81;;;9.08;85.56
35806;BME280;21925;44.608;11.580;2023-02-28T07:38:45;102319.03;;;9.08;85.96
35806;BME280;21925;44.608;11.580;2023-02-28T07:41:14;102323.28;;;9.14;86.50
35806;BME280;21925;44.608;11.580;2023-02-28T07:43:39;102320.03;;;9.12;85.67
35806;BME280;21925;44.608;11.580;2023-02-28T07:46:10;102328.13;;;9.03;85.68
35806;BME280;21925;44.608;11.580;2023-02-28T07:48:36;102327.94;;;9.13;85.48
35806;BME280;21925;44.608;11.580;2023-02-28T07:51:02;102321.97;;;9.11;85.86
35806;BME280;21925;44.608;11.580;2023-02-28T07:53:29;102331.41;;;9.64;85.66
35806;BME280;21925;44.608;11.580;2023-02-28T07:55:56;102317.50;;;9.15;84.38
35806;BME280;21925;44.608;11.580;2023-02-28T07:58:22;102339.53;;;9.69;85.22
35806;BME280;21925;44.608;11.580;2023-02-28T08:00:48;102326.84;;;9.73;84.07
35806;BME280;21925;44.608;11.580;2023-02-28T08:03:14;102341.41;;;9.42;84.14
35806;BME280;21925;44.608;11.580;2023-02-28T08:05:40;102330.66;;;9.45;85.18
35806;BME280;21925;44.608;11.580;2023-02-28T08:08:09;102335.34;;;9.58;84.77
35806;BME280;21925;44.608;11.580;2023-02-28T08:10:34;102332.47;;;9.36;83.34
35806;BME280;21925;44.608;11.580;2023-02-28T08:13:00;102335.44;;;9.53;83.45
35806;BME280;21925;44.608;11.580;2023-02-28T08:15:26;102328.28;;;9.84;83.28
35806;BME280;21925;44.608;11.580;2023-02-28T08:17:51;102344.34;;;10.04;82.46
35806;BME280;21925;44.608;11.580;2023-02-28T08:20:18;102333.22;;;9.68;80.93
35806;BME280;21925;44.608;11.580;2023-02-28T08:22:44;102332.50;;;9.63;81.42
35806;BME280;21925;44.608;11.580;2023-02-28T08:25:10;102341.59;;;9.77;81.65
35806;BME280;21925;44.608;11.580;2023-02-28T08:27:36;102336.22;;;10.12;81.66
35806;BME280;21925;44.608;11.580;2023-02-28T08:30:02;102315.31;;;9.89;80.99
35806;BME280;21925;44.608;11.580;2023-02-28T08:32:28;102343.75;;;10.07;81.85
35806;BME280;21925;44.608;11.580;2023-02-28T08:34:54;102327.06;;;9.90;79.74
35806;BME280;21925;44.608;11.580;2023-02-28T08:37:20;102346.56;;;10.02;79.81
35806;BME280;21925;44.608;11.580;2023-02-28T08:39:48;102346.56;;;10.15;80.51
35806;BME280;21925;44.608;11.580;2023-02-28T08:42:14;102353.25;;;9.96;79.58
35806;BME280;21925;44.608;11.580;2023-02-28T08:44:39;102338.13;;;9.98;78.70
35806;BME280;21925;44.608;11.580;2023-02-28T08:47:06;102339.50;;;10.01;78.77
35806;BME280;21925;44.608;11.580;2023-02-28T08:49:31;102347.75;;;10.49;78.37
35806;BME280;21925;44.608;11.580;2023-02-28T08:51:58;102337.72;;;10.32;78.14
35806;BME280;21925;44.608;11.580;2023-02-28T08:54:24;102343.69;;;10.47;77.36
35806;BME280;21925;44.608;11.580;2023-02-28T08:56:50;102343.47;;;10.43;78.30
35806;BME280;21925;44.608;11.580;2023-02-28T08:59:15;102351.44;;;10.32;78.39
35806;BME280;21925;44.608;11.580;2023-02-28T09:01:41;102350.53;;;10.23;77.44
35806;BME280;21925;44.608;11.580;2023-02-28T09:04:09;102355.75;;;10.59;77.93
35806;BME280;21925;44.608;11.580;2023-02-28T09:06:36;102340.47;;;10.80;77.86
35806;BME280;21925;44.608;11.580;2023-02-28T09:09:01;102353.38;;;10.66;76.60
35806;BME280;21925;44.608;11.580;2023-02-28T09:11:29;102350.72;;;10.75;76.72
35806;BME280;21925;44.608;11.580;2023-02-28T09:13:55;102343.84;;;10.64;75.87
35806;BME280;21925;44.608;11.580;2023-02-28T09:16:21;102365.91;;;10.94;76.78
35806;BME280;21925;44.608;11.580;2023-02-28T09:18:47;102357.81;;;10.89;76.38
35806;BME280;21925;44.608;11.580;2023-02-28T09:21:15;102364.94;;;10.90;75.75
35806;BME280;21925;44.608;11.580;2023-02-28T09:23:45;102378.50;;;10.95;76.28
35806;BME280;21925;44.608;11.580;2023-02-28T09:26:16;102369.63;;;10.76;75.10
35806;BME280;21925;44.608;11.580;2023-02-28T09:28:42;102370.28;;;11.17;75.57
35806;BME280;21925;44.608;11.580;2023-02-28T09:31:13;102357.53;;;10.99;74.86
35806;BME280;21925;44.608;11.580;2023-02-28T09:33:39;102358.00;;;10.93;74.81
35806;BME280;21925;44.608;11.580;2023-02-28T09:36:05;102357.25;;;11.22;73.96
35806;BME280;21925;44.608;11.580;2023-02-28T09:38:31;102364.91;;;11.34;75.76
35806;BME280;21925;44.608;11.580;2023-02-28T09:41:03;102356.94;;;11.24;75.83
35806;BME280;21925;44.608;11.580;2023-02-28T09:43:34;102328.88;;;11.05;74.33
35806;BME280;21925;44.608;11.580;2023-02-28T09:46:08;102360.44;;;11.38;74.18
35806;BME280;21925;44.608;11.580;2023-02-28T09:48:41;102354.13;;;11.37;75.62
35806;BME280;21925;44.608;11.580;2023-02-28T09:51:35;102352.69;;;11.62;74.80
35806;BME280;21925;44.608;11.580;2023-02-28T09:54:03;102352.44;;;11.28;73.49
35806;BME280;21925;44.608;11.580;2023-02-28T09:56:51;102356.44;;;11.44;76.24
35806;BME280;21925;44.608;11.580;2023-02-28T10:02:16;102359.44;;;11.12;75.91
35806;BME280;21925;44.608;11.580;2023-02-28T10:13:51;102346.34;;;11.53;73.74
35806;BME280;21925;44.608;11.580;2023-02-28T10:15:55;102353.72;;;12.13;73.61
35806;BME280;21925;44.608;11.580;2023-02-28T10:18:44;102337.34;;;12.72;70.14
35806;BME280;21925;44.608;11.580;2023-02-28T10:21:25;102352.41;;;13.25;69.69
35806;BME280;21925;44.608;11.580;2023-02-28T10:24:41;102346.78;;;13.67;67.75
35806;BME280;21925;44.608;11.580;2023-02-28T10:26:43;102351.31;;;12.20;67.84
35806;BME280;21925;44.608;11.580;2023-02-28T10:29:10;102357.25;;;12.86;69.75
35806;BME280;21925;44.608;11.580;2023-02-28T10:31:36;102355.06;;;12.32;67.99
35806;BME280;21925;44.608;11.580;2023-02-28T10:34:03;102353.38;;;12.87;69.44
35806;BME280;21925;44.608;11.580;2023-02-28T10:36:29;102353.16;;;12.41;69.30
35806;BME280;21925;44.608;11.580;2023-02-28T10:38:55;102351.78;;;12.13;70.04
35806;BME280;21925;44.608;11.580;2023-02-28T10:41:31;102342.09;;;12.24;69.64
35806;BME280;21925;44.608;11.580;2023-02-28T10:44:21;102343.25;;;11.85;69.13
35806;BME280;21925;44.608;11.580;2023-02-28T10:46:48;102337.19;;;12.04;70.21
35806;BME280;21925;44.608;11.580;2023-02-28T10:49:24;102333.59;;;12.51;69.76
35806;BME280;21925;44.608;11.580;2023-02-28T10:51:55;102332.44;;;12.52;68.62
35806;BME280;21925;44.608;11.580;2023-02-28T10:54:29;102338.13;;;12.72;69.69
35806;BME280;21925;44.608;11.580;2023-02-28T10:57:24;102342.81;;;12.55;67.96
35806;BME280;21925;44.608;11.580;2023-02-28T10:59:52;102333.78;;;13.22;66.87
35806;BME280;21925;44.608;11.580;2023-02-28T11:02:35;102327.78;;;12.78;65.81
35806;BME280;21925;44.608;11.580;2023-02-28T11:05:10;102322.75;;;12.80;65.81
35806;BME280;21925;44.608;11.580;2023-02-28T11:07:52;102341.19;;;12.54;65.67
35806;BME280;21925;44.608;11.580;2023-02-28T11:10:20;102315.16;;;13.19;66.06
35806;BME280;21925;44.608;11.580;2023-02-28T11:12:47;102311.84;;;13.51;63.88
35806;BME280;21925;44.608;11.580;2023-02-28T11:15:32;102329.47;;;13.58;63.06
35806;BME280;21925;44.608;11.580;2023-02-28T11:20:30;102323.69;;;13.35;61.38
35806;BME280;21925;44.608;11.580;2023-02-28T11:22:58;102314.16;;;13.41;61.44
35806;BME280;21925;44.608;11.580;2023-02-28T11:25:32;102294.91;;;13.24;62.19
35806;BME280;21925;44.608;11.580;2023-02-28T11:28:08;102307.84;;;13.32;62.49
35806;BME280;21925;44.608;11.580;2023-02-28T11:31:00;102312.72;;;13.72;62.85
35806;BME280;21925;44.608;11.580;2023-02-28T11:36:11;102311.41;;;13.41;63.47
35806;BME280;21925;44.608;11.580;2023-02-28T11:38:37;102312.19;;;13.33;64.63
35806;BME280;21925;44.608;11.580;2023-02-28T11:46:50;102313.03;;;13.25;63.62
35806;BME280;21925;44.608;11.580;2023-02-28T11:54:43;102284.19;;;13.31;63.98
35806;BME280;21925;44.608;11.580;2023-02-28T12:02:35;102287.47;;;12.90;64.33
35806;BME280;21925;44.608;11.580;2023-02-28T12:10:29;102272.06;;;13.15;63.71
35806;BME280;21925;44.608;11.580;2023-02-28T12:13:08;102265.88;;;13.26;64.47
35806;BME280;21925;44.608;11.580;2023-02-28T12:28:46;102251.78;;;13.28;65.77
35806;BME280;21925;44.608;11.580;2023-02-28T12:31:36;102256.88;;;13.54;63.26
35806;BME280;21925;44.608;11.580;2023-02-28T12:34:07;102249.91;;;12.77;64.81
35806;BME280;21925;44.608;11.580;2023-02-28T12:36:36;102246.97;;;13.08;65.36
35806;BME280;21925;44.608;11.580;2023-02-28T12:39:08;102215.81;;;13.24;64.64
35806;BME280;21925;44.608;11.580;2023-02-28T12:41:41;102243.88;;;13.63;63.19
35806;BME280;21925;44.608;11.580;2023-02-28T12:44:12;102241.16;;;12.92;63.17
35806;BME280;21925;44.608;11.580;2023-02-28T12:46:42;102244.22;;;12.82;62.38
35806;BME280;21925;44.608;11.580;2023-02-28T12:49:17;102242.63;;;12.90;63.64
35806;BME280;21925;44.608;11.580;2023-02-28T12:51:45;102235.28;;;13.11;62.58
35806;BME280;21925;44.608;11.580;2023-02-28T13:10:24;102209.63;;;13.36;63.01
35806;BME280;21925;44.608;11.580;2023-02-28T13:12:52;102201.84;;;13.95;63.61
35806;BME280;21925;44.608;11.580;2023-02-28T13:15:20;102211.69;;;13.76;60.88
35806;BME280;21925;44.608;11.580;2023-02-28T13:17:49;102206.03;;;13.72;61.99
35806;BME280;21925;44.608;11.580;2023-02-28T13:22:49;102180.72;;;13.42;62.75
35806;BME280;21925;44.608;11.580;2023-02-28T13:27:49;102201.25;;;13.24;64.44
35806;BME280;21925;44.608;11.580;2023-02-28T13:36:26;102190.59;;;13.14;64.75
35806;BME280;21925;44.608;11.580;2023-02-28T13:39:01;102185.50;;;12.62;66.73
35806;BME280;21925;44.608;11.580;2023-02-28T13:51:55;102183.50;;;12.79;67.86
35806;BME280;21925;44.608;11.580;2023-02-28T14:00:07;102176.38;;;12.95;65.40
35806;BME280;21925;44.608;11.580;2023-02-28T14:05:31;102165.03;;;13.05;63.68
35806;BME280;21925;44.608;11.580;2023-02-28T14:07:59;102178.50;;;12.72;65.07
35806;BME280;21925;44.608;11.580;2023-02-28T14:11:02;102153.09;;;12.84;64.88
35806;BME280;21925;44.608;11.580;2023-02-28T14:13:42;102164.25;;;12.79;64.72
35806;BME280;21925;44.608;11.580;2023-02-28T14:16:26;102162.53;;;12.15;68.20
35806;BME280;21925;44.608;11.580;2023-02-28T14:19:01;102167.41;;;12.35;67.49
35806;BME280;21925;44.608;11.580;2023-02-28T14:21:33;102144.91;;;12.08;69.25
35806;BME280;21925;44.608;11.580;2023-02-28T14:30:10;102151.03;;;12.56;73.73
35806;BME280;21925;44.608;11.580;2023-02-28T14:38:18;102128.25;;;11.32;74.11
35806;BME280;21925;44.608;11.580;2023-02-28T14:40:47;102122.22;;;11.52;74.59
35806;BME280;21925;44.608;11.580;2023-02-28T14:43:28;102145.09;;;11.94;74.29
35806;BME280;21925;44.608;11.580;2023-02-28T14:46:01;102141.31;;;11.74;74.80
35806;BME280;21925;44.608;11.580;2023-02-28T14:48:28;102126.69;;;11.48;75.60
35806;BME280;21925;44.608;11.580;2023-02-28T14:50:57;102140.50;;;11.65;75.74
35806;BME280;21925;44.608;11.580;2023-02-28T14:53:27;102109.97;;;11.19;77.59
35806;BME280;21925;44.608;11.580;2023-02-28T14:55:53;102129.97;;;11.11;78.27
35806;BME280;21925;44.608;11.580;2023-02-28T14:58:28;102140.50;;;11.65;76.90
35806;BME280;21925;44.608;11.580;2023-02-28T15:00:56;102148.03;;;11.51;77.81
35806;BME280;21925;44.608;11.580;2023-02-28T15:05:55;102129.69;;;11.85;76.89